createdAt,value
2023-04-12T00:02:59.688Z,3.49
2023-04-12T00:08:05.193Z,3.41
2023-04-12T00:13:07.996Z,3.35
2023-04-12T00:18:09.600Z,3.43
2023-04-12T00:23:13.001Z,3.34
2023-04-12T00:28:16.138Z,3.24
2023-04-12T00:33:18.461Z,3.24
2023-04-12T00:38:20.086Z,3.22
2023-04-12T00:43:21.839Z,3.13
2023-04-12T00:48:24.826Z,3.07
2023-04-12T00:53:26.631Z,3.02
2023-04-12T00:58:28.243Z,2.72
2023-04-12T01:03:30.960Z,2.32
2023-04-12T01:09:05.147Z,2.51
2023-04-12T01:14:31.622Z,2.45
2023-04-12T01:19:59.055Z,2.34
2023-04-12T01:25:11.083Z,2.10
2023-04-12T01:30:15.928Z,1.86
2023-04-12T01:35:19.401Z,1.96
2023-04-12T01:40:21.318Z,1.83
2023-04-12T01:45:22.963Z,1.86
2023-04-12T01:50:49.971Z,1.69
2023-04-12T01:55:56.359Z,1.78
2023-04-12T02:01:00.913Z,1.66
2023-04-12T02:06:05.049Z,1.62
2023-04-12T02:11:09.725Z,1.58
2023-04-12T02:16:13.931Z,1.30
2023-04-12T02:21:16.088Z,1.17
2023-04-12T02:26:17.730Z,1.38
2023-04-12T02:31:19.803Z,1.31
2023-04-12T02:36:23.702Z,1.29
2023-04-12T02:41:25.684Z,1.36
2023-04-12T02:46:28.704Z,1.30
2023-04-12T02:51:33.161Z,1.03
2023-04-12T02:56:37.424Z,1.11
2023-04-12T03:01:53.726Z,1.01
2023-04-12T03:07:06.709Z,0.84
2023-04-12T03:12:17.105Z,0.92
2023-04-12T03:17:43.026Z,0.91
2023-04-12T03:22:46.200Z,0.84
2023-04-12T03:27:47.946Z,0.71
2023-04-12T03:32:53.998Z,0.54
2023-04-12T03:37:56.514Z,0.72
2023-04-12T03:43:00.728Z,0.72
2023-04-12T03:48:05.137Z,0.84
2023-04-12T03:53:15.744Z,0.74
2023-04-12T03:58:20.715Z,0.69
2023-04-12T04:03:27.059Z,0.61
2023-04-12T04:08:39.973Z,0.51
2023-04-12T04:13:41.893Z,0.41
2023-04-12T04:18:47.650Z,0.44
2023-04-12T04:23:52.800Z,0.36
2023-04-12T04:28:55.534Z,0.60
2023-04-12T04:34:05.395Z,0.50
2023-04-12T04:39:09.303Z,0.50
2023-04-12T04:44:21.849Z,0.54
2023-04-12T04:49:29.254Z,0.67
2023-04-12T04:54:37.544Z,0.82
2023-04-12T04:59:40.365Z,1.00
2023-04-12T05:04:51.364Z,1.00
2023-04-12T05:09:57.149Z,1.22
2023-04-12T05:15:11.186Z,1.75
2023-04-12T05:20:14.122Z,2.31
2023-04-12T05:25:15.819Z,2.15
2023-04-12T05:30:28.186Z,2.05
2023-04-12T05:35:31.606Z,1.99
2023-04-12T05:40:36.504Z,3.00
2023-04-12T05:45:41.470Z,6.35
2023-04-12T05:50:53.200Z,8.66
2023-04-12T05:55:56.439Z,10.39
2023-04-12T06:00:59.058Z,9.41
2023-04-12T06:06:03.228Z,10.13
2023-04-12T06:11:05.604Z,10.48
2023-04-12T06:16:07.946Z,9.81
2023-04-12T06:21:10.013Z,10.99
2023-04-12T06:26:11.766Z,10.23
2023-04-12T06:31:16.130Z,9.77
2023-04-12T06:36:18.672Z,10.56
2023-04-12T06:41:20.407Z,11.35
2023-04-12T06:46:27.549Z,12.63
2023-04-12T06:51:29.313Z,12.66
2023-04-12T06:56:30.949Z,11.96
2023-04-12T07:01:32.629Z,12.96
2023-04-12T07:06:34.475Z,12.60
2023-04-12T07:11:36.212Z,13.43
2023-04-12T07:16:38.013Z,14.51
2023-04-12T07:21:39.672Z,13.98
2023-04-12T07:26:41.278Z,14.68
2023-04-12T07:31:42.909Z,16.77
2023-04-12T07:36:45.034Z,18.56
2023-04-12T07:41:48.366Z,19.82
2023-04-12T07:46:49.977Z,22.48
2023-04-12T07:51:51.920Z,25.61
2023-04-12T07:57:01.142Z,21.35
2023-04-12T08:02:03.451Z,23.74
2023-04-12T08:07:05.430Z,21.11
2023-04-12T08:12:07.362Z,23.96
2023-04-12T08:17:09.023Z,22.16
2023-04-12T08:22:13.492Z,20.33
2023-04-12T08:27:16.570Z,19.23
2023-04-12T08:32:18.295Z,16.99
2023-04-12T08:37:19.941Z,16.45
2023-04-12T08:42:22.384Z,19.22
2023-04-12T08:47:24.070Z,16.79
2023-04-12T08:52:25.696Z,15.01
2023-04-12T08:57:28.380Z,16.73
2023-04-12T09:02:31.658Z,17.65
2023-04-12T09:07:33.618Z,17.97
2023-04-12T09:12:35.512Z,14.95
2023-04-12T09:17:38.848Z,15.69
2023-04-12T09:22:44.542Z,16.28
2023-04-12T09:27:50.879Z,15.87
2023-04-12T09:32:54.555Z,17.77
2023-04-12T09:38:08.267Z,19.60
2023-04-12T09:43:10.709Z,19.43
2023-04-12T09:48:21.250Z,17.35
2023-04-12T09:53:22.940Z,17.80
2023-04-12T09:58:26.735Z,15.20
2023-04-12T10:03:29.021Z,16.62
2023-04-12T10:08:31.553Z,16.28
2023-04-12T10:13:33.850Z,16.31
2023-04-12T10:18:37.345Z,15.87
2023-04-12T10:23:39.327Z,15.86
2023-04-12T10:28:41.155Z,18.26
2023-04-12T10:33:43.251Z,18.83
2023-04-12T10:38:48.162Z,16.64
2023-04-12T10:43:52.645Z,18.51
2023-04-12T10:48:57.519Z,18.13
2023-04-12T10:54:08.396Z,17.33
2023-04-12T10:59:14.210Z,17.18
2023-04-12T11:04:21.052Z,16.63
2023-04-12T11:09:37.081Z,18.33
2023-04-12T11:14:50.498Z,19.10
2023-04-12T11:20:01.118Z,18.42
2023-04-12T11:25:03.435Z,19.44
2023-04-12T11:30:05.944Z,18.86
2023-04-12T11:35:11.056Z,21.10
2023-04-12T11:40:14.672Z,20.85
2023-04-12T11:45:20.265Z,16.82
2023-04-12T11:50:29.794Z,19.98
2023-04-12T11:55:31.648Z,16.02
2023-04-12T12:00:33.302Z,15.99
2023-04-12T12:05:38.480Z,16.54
2023-04-12T12:10:55.471Z,17.45
2023-04-12T12:16:06.893Z,17.69
2023-04-12T12:21:09.845Z,19.36
2023-04-12T12:26:24.910Z,17.06
2023-04-12T12:31:28.470Z,15.77
2023-04-12T12:36:32.897Z,16.14
2023-04-12T12:41:35.390Z,16.10
2023-04-12T12:51:42.625Z,15.23
2023-04-12T12:56:44.935Z,15.99
2023-04-12T13:01:46.629Z,15.41
2023-04-12T13:06:48.299Z,15.56
2023-04-12T13:11:49.923Z,17.25
2023-04-12T13:16:51.678Z,17.71
2023-04-12T13:21:53.458Z,16.53
2023-04-12T13:26:55.126Z,17.25
2023-04-12T13:31:56.955Z,15.51
2023-04-12T13:36:59.152Z,14.99
2023-04-12T13:42:02.254Z,14.64
2023-04-12T13:47:04.612Z,14.49
2023-04-12T13:52:06.377Z,14.40
2023-04-12T13:57:08.240Z,14.25
2023-04-12T14:02:10.263Z,14.10
2023-04-12T14:07:11.932Z,13.96
2023-04-12T14:12:13.535Z,13.71
2023-04-12T14:17:15.391Z,13.33
2023-04-12T14:22:17.105Z,13.18
2023-04-12T14:27:18.792Z,13.16
2023-04-12T14:32:20.592Z,13.15
2023-04-12T14:37:22.649Z,12.81
2023-04-12T14:42:24.341Z,12.56
2023-04-12T14:47:26.110Z,12.24
2023-04-12T14:52:27.783Z,12.22
2023-04-12T14:57:29.442Z,12.05
2023-04-12T15:02:31.274Z,11.96
2023-04-12T15:07:33.149Z,11.86
2023-04-12T15:12:35.540Z,11.75
2023-04-12T15:17:37.395Z,11.73
2023-04-12T15:22:40.342Z,11.68
2023-04-12T15:27:44.080Z,11.67
2023-04-12T15:32:47.059Z,11.74
2023-04-12T15:37:48.703Z,11.68
2023-04-12T15:42:50.693Z,11.84
2023-04-12T15:47:54.908Z,11.88
2023-04-12T15:52:57.914Z,11.81
2023-04-12T15:57:59.988Z,11.65
2023-04-12T16:03:01.805Z,11.75
2023-04-12T16:08:04.211Z,11.76
2023-04-12T16:13:06.324Z,11.53
2023-04-12T16:18:08.407Z,11.45
2023-04-12T16:23:10.052Z,11.35
2023-04-12T16:28:12.607Z,11.55
2023-04-12T16:33:14.304Z,11.66
2023-04-12T16:38:17.677Z,11.43
2023-04-12T16:43:19.500Z,11.54
2023-04-12T16:48:22.879Z,11.55
2023-04-12T16:53:24.733Z,11.43
2023-04-12T16:58:26.351Z,11.50
2023-04-12T17:03:28.144Z,11.47
2023-04-12T17:08:29.922Z,11.54
2023-04-12T17:13:31.591Z,11.58
2023-04-12T17:18:34.668Z,11.67
2023-04-12T17:23:36.781Z,11.57
2023-04-12T17:28:39.768Z,11.47
2023-04-12T17:33:41.611Z,11.49
2023-04-12T17:38:43.243Z,11.43
2023-04-12T17:43:47.286Z,11.44
2023-04-12T17:48:48.916Z,11.43
2023-04-12T17:53:50.766Z,11.41
2023-04-12T17:58:52.430Z,11.48
2023-04-12T18:03:54.241Z,11.44
2023-04-12T18:08:56.181Z,11.48
2023-04-12T18:13:58.173Z,11.47
2023-04-12T18:19:04.133Z,11.41
2023-04-12T18:24:06.306Z,11.40
2023-04-12T18:29:08.071Z,11.25
2023-04-12T18:34:09.883Z,11.21
2023-04-12T18:39:11.735Z,11.07
2023-04-12T18:44:13.429Z,11.12
2023-04-12T18:49:15.409Z,11.08
2023-04-12T18:54:17.609Z,10.99
2023-04-12T18:59:19.668Z,10.92
2023-04-12T19:04:21.888Z,10.85
2023-04-12T19:09:23.587Z,10.91
2023-04-12T19:14:25.494Z,10.99
2023-04-12T19:19:27.157Z,11.05
2023-04-12T19:24:28.790Z,11.09
2023-04-12T19:29:30.407Z,11.17
2023-04-12T19:34:32.237Z,11.16
2023-04-12T19:39:34.225Z,11.26
2023-04-12T19:44:37.255Z,11.28
2023-04-12T19:49:40.653Z,11.31
2023-04-12T19:54:42.321Z,11.19
2023-04-12T19:59:43.944Z,11.21
2023-04-12T20:04:45.600Z,11.18
2023-04-12T20:09:47.233Z,11.18
2023-04-12T20:14:48.841Z,11.16
2023-04-12T20:19:50.464Z,11.21
2023-04-12T20:24:54.133Z,11.31
2023-04-12T20:29:55.778Z,11.36
2023-04-12T20:34:58.224Z,11.32
2023-04-12T20:40:00.249Z,11.26
2023-04-12T20:45:03.201Z,11.26
2023-04-12T20:50:05.581Z,11.24
2023-04-12T20:55:07.518Z,11.24
2023-04-12T21:00:17.222Z,11.26
2023-04-12T21:05:18.838Z,11.30
2023-04-12T21:10:20.492Z,11.34
2023-04-12T21:15:22.250Z,11.30
2023-04-12T21:20:24.971Z,11.34
2023-04-12T21:25:26.573Z,11.35
2023-04-12T21:30:28.174Z,11.46
2023-04-12T21:35:30.319Z,11.47
2023-04-12T21:40:31.981Z,11.40
2023-04-12T21:45:33.664Z,11.49
2023-04-12T21:50:35.675Z,11.46
2023-04-12T21:55:37.353Z,11.50
2023-04-12T22:00:38.944Z,11.58
2023-04-12T22:05:41.158Z,11.57
2023-04-12T22:10:42.819Z,11.56
2023-04-12T22:15:44.450Z,11.49
2023-04-12T22:20:46.371Z,11.41
2023-04-12T22:25:49.583Z,11.44
2023-04-12T22:30:51.666Z,11.58
2023-04-12T22:35:53.408Z,11.59
2023-04-12T22:41:02.107Z,11.64
2023-04-12T22:46:05.869Z,11.62
2023-04-12T22:51:08.495Z,11.49
2023-04-12T22:56:11.263Z,11.40
2023-04-12T23:01:12.945Z,11.34
2023-04-12T23:06:14.733Z,11.36
2023-04-12T23:11:16.511Z,11.31
2023-04-12T23:16:18.355Z,11.28
2023-04-12T23:21:19.996Z,11.27
2023-04-12T23:26:21.904Z,11.34
2023-04-12T23:31:23.547Z,11.38
2023-04-12T23:36:26.114Z,11.29
2023-04-12T23:41:32.095Z,11.38
2023-04-12T23:46:35.023Z,11.41
2023-04-12T23:51:37.108Z,11.30
2023-04-12T23:56:38.718Z,11.28
